Time;durP1;ratioP1;P1;durP2;ratioP2;P2;SDS_P1;SDS_P2;PMS_P1;PMS_P2;Temp;Humidity;BMP_temperature;BMP_pressure;BME280_temperature;BME280_humidity;BME280_pressure;Samples;Min_cycle;Max_cycle;Signal;HPM_P1;HPM_P2
2021/03/21 00:01:39;;;;;;;2.17;0.50;;;7.40;99.90;;;7.59;92.30;102483.06;5012830;28;20037;-70
2021/03/21 00:04:06;;;;;;;0.88;0.57;;;7.40;99.90;;;7.40;93.86;102488.44;5029241;28;20047;-70
2021/03/21 00:06:32;;;;;;;1.08;0.93;;;7.30;99.90;;;7.50;93.63;102489.31;4997307;28;20049;-69
2021/03/21 00:08:58;;;;;;;1.52;0.60;;;7.20;99.90;;;7.48;93.53;102496.72;5027058;28;20025;-68
2021/03/21 00:11:24;;;;;;;0.40;0.30;;;7.20;99.90;;;7.37;94.29;102480.59;5013491;28;20399;-68
2021/03/21 00:13:50;;;;;;;4.05;0.32;;;7.20;99.90;;;7.37;94.84;102483.31;5030023;28;20508;-69
2021/03/21 00:16:17;;;;;;;0.70;0.70;;;7.20;99.90;;;7.36;94.53;102478.03;5013328;28;20033;-70
2021/03/21 00:18:44;;;;;;;3.67;0.50;;;7.20;99.90;;;7.26;94.90;102475.28;5045982;28;20034;-68
2021/03/21 00:21:14;;;;;;;2.45;0.50;;;7.10;99.90;;;7.25;94.43;102474.44;5029226;28;20376;-67
2021/03/21 00:23:40;;;;;;;0.70;0.43;;;7.00;99.90;;;7.30;94.60;102471.31;5010314;28;20114;-68
2021/03/21 00:26:09;;;;;;;1.25;0.50;;;7.00;99.90;;;7.23;95.01;102464.72;5028345;28;20044;-68
2021/03/21 00:28:37;;;;;;;0.68;0.50;;;7.00;99.90;;;7.21;95.15;102472.16;5014216;28;20495;-68
2021/03/21 00:31:06;;;;;;;2.20;0.68;;;7.00;99.90;;;7.13;95.55;102461.13;5027968;28;20497;-69
2021/03/21 00:33:35;;;;;;;0.75;0.52;;;7.00;99.90;;;7.17;95.84;102470.72;5010970;28;20033;-68
2021/03/21 00:36:02;;;;;;;3.33;0.50;;;7.10;99.90;;;7.20;95.23;102465.03;5029038;28;20033;-68
2021/03/21 00:38:42;;;;;;;0.68;0.68;;;7.10;99.90;;;7.22;94.86;102461.16;5029633;28;20106;-69
2021/03/21 00:41:11;;;;;;;0.70;0.70;;;7.10;99.90;;;7.26;95.13;102453.63;5025626;28;20103;-68
2021/03/21 00:43:37;;;;;;;1.50;0.63;;;7.10;99.90;;;7.21;95.19;102445.06;5029627;28;20038;-69
2021/03/21 00:46:04;;;;;;;3.20;0.65;;;7.10;99.90;;;7.21;95.56;102448.66;5012037;28;20041;-69
2021/03/21 00:48:39;;;;;;;1.70;0.80;;;7.10;99.90;;;7.23;95.29;102445.75;5013493;28;20068;-69
2021/03/21 00:51:05;;;;;;;;;;;7.20;99.90;;;7.10;95.25;102442.47;5029320;28;20041;-68
2021/03/21 00:53:31;;;;;;;3.13;0.70;;;7.20;99.90;;;7.12;95.81;102451.28;5013586;28;19933;-68
2021/03/21 00:55:58;;;;;;;1.65;0.90;;;7.20;99.90;;;7.25;95.55;102449.19;5012642;28;20037;-69
2021/03/21 00:58:23;;;;;;;1.50;0.88;;;7.20;99.90;;;7.31;95.12;102445.94;4997014;28;20492;-68
2021/03/21 01:00:54;;;;;;;2.75;1.30;;;7.30;99.90;;;7.28;95.36;102440.81;5029950;28;20045;-68
2021/03/21 01:03:21;;;;;;;1.95;1.10;;;7.20;99.90;;;7.40;95.41;102439.69;5028174;28;20037;-66
2021/03/21 01:05:52;;;;;;;1.52;0.95;;;7.30;99.90;;;7.53;95.07;102442.97;5029414;28;20037;-68
2021/03/21 01:08:38;;;;;;;2.60;1.40;;;7.30;99.90;;;7.38;95.00;102447.09;5028343;28;20041;-67
2021/03/21 01:11:21;;;;;;;1.85;1.63;;;7.30;99.90;;;7.51;95.37;102447.69;5026465;28;20041;-67
2021/03/21 01:13:47;;;;;;;2.70;1.92;;;7.40;99.90;;;7.58;94.36;102429.00;5013571;28;20033;-67
2021/03/21 01:16:31;;;;;;;2.63;1.92;;;7.30;99.90;;;7.47;94.64;102430.00;5011378;28;20136;-67
2021/03/21 01:18:59;;;;;;;2.42;1.80;;;7.40;99.90;;;7.60;94.87;102427.00;5029596;28;20037;-68
2021/03/21 01:21:28;;;;;;;4.88;2.25;;;7.40;99.90;;;7.54;95.25;102430.28;5009882;28;20047;-68
2021/03/21 01:23:55;;;;;;;3.92;2.17;;;7.40;99.90;;;7.60;95.33;102419.72;5009057;28;20043;-67
2021/03/21 01:26:23;;;;;;;8.63;2.35;;;7.40;99.90;;;7.50;95.58;102421.59;5025011;28;20140;-68
2021/03/21 01:28:50;;;;;;;3.67;2.30;;;7.40;99.90;;;7.54;95.54;102409.47;5024481;28;20029;-66
2021/03/21 01:31:21;;;;;;;7.47;3.17;;;7.40;99.90;;;7.55;95.72;102408.47;5026006;28;20050;-67
2021/03/21 01:33:48;;;;;;;4.20;2.70;;;7.40;99.90;;;7.68;95.30;102402.75;5045810;28;20065;-68
2021/03/21 01:36:37;;;;;;;3.83;2.88;;;7.40;99.90;;;7.66;95.52;102407.47;4995533;28;20045;-69
2021/03/21 01:39:24;;;;;;;5.80;3.42;;;7.40;99.90;;;7.65;95.53;102381.38;5012079;28;20075;-67
2021/03/21 01:42:08;;;;;;;3.97;2.63;;;7.50;99.90;;;7.56;95.88;102363.28;5017693;28;20116;-67
2021/03/21 01:44:34;;;;;;;4.47;2.83;;;7.50;99.90;;;7.40;96.35;102363.84;5026728;28;20411;-67
2021/03/21 01:47:06;;;;;;;5.13;3.33;;;7.50;99.90;;;7.36;96.74;102373.22;5012396;28;20683;-66
2021/03/21 01:49:41;;;;;;;4.53;3.58;;;7.40;99.90;;;7.51;96.21;102377.25;5029444;28;20072;-68
2021/03/21 01:52:16;;;;;;;5.35;3.17;;;7.50;99.90;;;7.62;96.21;102378.94;5013283;28;20025;-66
2021/03/21 01:54:42;;;;;;;6.57;3.78;;;7.40;99.90;;;7.63;96.00;102370.69;5029833;28;20033;-67
2021/03/21 01:57:08;;;;;;;6.55;3.97;;;7.50;99.90;;;7.62;96.42;102368.97;5011284;28;20068;-68
2021/03/21 01:59:35;;;;;;;7.63;5.63;;;7.60;99.90;;;7.69;96.15;102369.22;5014273;28;20060;-68
2021/03/21 02:02:04;;;;;;;6.18;4.30;;;7.60;99.90;;;7.72;96.16;102357.25;5030589;28;20404;-69
2021/03/21 02:04:30;;;;;;;7.20;4.72;;;7.60;99.90;;;7.79;95.88;102359.22;5016034;28;20034;-68
2021/03/21 02:07:30;;;;;;;8.68;5.07;;;7.70;99.90;;;7.80;95.99;102354.66;5029882;28;20041;-68
2021/03/21 02:10:28;;;;;;;7.93;4.63;;;7.70;99.90;;;7.87;95.97;102351.25;5033868;28;20034;-68
2021/03/21 02:13:39;;;;;;;11.38;4.55;;;7.80;99.90;;;7.69;96.11;102354.81;5032523;28;20041;-67
2021/03/21 02:16:25;;;;;;;8.63;4.65;;;7.80;99.90;;;7.74;96.57;102349.84;5040121;28;20045;-67
2021/03/21 02:19:01;;;;;;;8.75;5.18;;;7.90;99.90;;;7.87;96.75;102350.38;5015860;28;20029;-67
2021/03/21 02:21:43;;;;;;;15.68;5.63;;;7.90;99.90;;;7.91;96.46;102349.94;5026808;28;20057;-68
2021/03/21 02:24:33;;;;;;;11.73;5.82;;;7.90;99.90;;;7.96;94.96;102352.22;5015511;28;20497;-68
2021/03/21 02:28:15;;;;;;;11.43;6.47;;;7.90;99.90;;;7.97;95.43;102341.22;5029652;28;20034;-68
2021/03/21 02:30:47;;;;;;;9.95;5.60;;;7.90;99.90;;;7.84;96.82;102351.53;4941533;28;20098;-68
2021/03/21 02:33:33;;;;;;;12.13;6.82;;;7.90;99.90;;;7.98;96.52;102342.94;4921448;29;20054;-68
2021/03/21 02:36:38;;;;;;;10.60;6.07;;;7.90;99.90;;;7.99;96.63;102332.94;4997508;28;20119;-68
2021/03/21 02:39:27;;;;;;;10.98;6.40;;;8.00;99.90;;;7.96;96.23;102328.66;5031338;28;20057;-67
2021/03/21 02:42:16;;;;;;;9.75;6.03;;;8.00;99.90;;;7.95;96.43;102339.66;5031848;28;20082;-67
2021/03/21 02:44:49;;;;;;;9.98;6.65;;;8.00;99.90;;;7.85;97.75;102352.38;5032492;28;20048;-68
2021/03/21 02:47:26;;;;;;;10.65;6.05;;;8.00;99.90;;;7.95;97.70;102355.94;5026186;28;20037;-67
2021/03/21 02:49:57;;;;;;;13.77;7.85;;;8.00;99.90;;;7.75;98.29;102357.81;5011088;28;20065;-68
2021/03/21 02:52:29;;;;;;;12.23;6.43;;;8.00;99.90;;;7.76;98.81;102364.09;5026501;28;20041;-68
2021/03/21 02:55:27;;;;;;;15.73;8.02;;;8.00;99.90;;;7.50;100.00;102356.56;5031709;28;20083;-67
2021/03/21 02:58:23;;;;;;;20.88;9.52;;;7.80;99.90;;;7.43;100.00;102351.88;5015428;28;20056;-67
2021/03/21 03:01:10;;;;;;;14.35;7.53;;;7.80;99.90;;;7.58;100.00;102356.69;5031886;28;20030;-67
2021/03/21 03:03:44;;;;;;;13.05;7.32;;;7.80;99.90;;;7.36;100.00;102361.53;5031659;28;20043;-68
2021/03/21 03:06:23;;;;;;;18.15;7.07;;;7.70;99.90;;;7.28;99.86;102354.13;5015102;28;20040;-68
2021/03/21 03:08:58;;;;;;;11.85;6.55;;;7.60;99.90;;;7.20;100.00;102367.53;5015228;28;20040;-68
2021/03/21 03:11:48;;;;;;;10.05;6.00;;;7.50;99.90;;;7.33;99.88;102373.53;5030971;28;20033;-69
2021/03/21 03:14:22;;;;;;;8.43;5.25;;;7.50;99.90;;;7.16;99.62;102366.09;5032300;28;20541;-68
2021/03/21 03:17:37;;;;;;;10.13;4.90;;;7.50;99.90;;;7.15;98.85;102364.38;5030528;28;20040;-68
2021/03/21 03:20:13;;;;;;;10.60;4.97;;;7.40;99.90;;;7.08;97.75;102363.25;5033475;28;20034;-68
2021/03/21 03:22:53;;;;;;;10.38;3.97;;;7.30;99.90;;;7.08;97.76;102363.25;5014056;28;20389;-67
2021/03/21 03:25:30;;;;;;;8.40;3.22;;;7.30;99.90;;;6.97;97.59;102375.06;5030822;28;20029;-69
2021/03/21 03:28:12;;;;;;;16.05;4.55;;;7.20;99.90;;;7.14;97.11;102373.50;5029049;28;20052;-69
2021/03/21 03:31:07;;;;;;;5.65;2.42;;;7.30;99.90;;;7.10;96.43;102374.78;5019382;28;20116;-69
2021/03/21 03:33:34;;;;;;;;;;;7.30;99.90;;;7.13;96.12;102385.31;4999124;28;20115;-69
2021/03/21 03:36:04;;;;;;;7.63;3.25;;;7.30;99.90;;;7.13;96.17;102383.47;5029305;28;19936;-69
2021/03/21 03:38:30;;;;;;;8.13;3.42;;;7.30;99.90;;;7.12;96.32;102381.75;5014628;28;20090;-70
2021/03/21 03:41:08;;;;;;;5.53;2.30;;;7.40;99.90;;;7.11;95.74;102385.44;5014327;28;20049;-69
2021/03/21 03:43:55;;;;;;;11.98;2.85;;;7.30;99.90;;;7.05;94.37;102379.75;5013237;28;20057;-70
2021/03/21 03:46:57;;;;;;;7.80;1.67;;;7.30;99.90;;;7.02;93.68;102382.72;5041819;28;20041;-70
2021/03/21 03:49:44;;;;;;;7.63;2.28;;;7.30;99.90;;;7.15;93.42;102383.34;5023914;28;20108;-69
2021/03/21 03:52:43;;;;;;;5.22;2.47;;;7.30;99.90;;;7.03;92.82;102381.75;5043048;28;20037;-69
2021/03/21 03:55:26;;;;;;;7.97;2.25;;;7.20;99.90;;;7.08;92.10;102379.50;5029229;28;20033;-70
2021/03/21 03:58:30;;;;;;;4.95;1.75;;;7.20;99.90;;;7.04;90.41;102375.34;5030683;28;20114;-70
2021/03/21 04:01:12;;;;;;;7.45;0.90;;;7.20;99.90;;;7.12;89.87;102370.06;5020549;28;20512;-70
2021/03/21 04:03:48;;;;;;;10.43;2.15;;;7.30;99.90;;;7.03;89.47;102370.91;5012726;28;20033;-70
2021/03/21 04:06:25;;;;;;;3.85;1.40;;;7.30;99.90;;;7.16;89.27;102376.94;5013135;28;20030;-69
2021/03/21 04:09:00;;;;;;;7.93;1.50;;;7.30;99.90;;;7.14;88.52;102373.50;5029869;28;20025;-70
2021/03/21 04:11:53;;;;;;;6.45;1.38;;;7.30;99.90;;;7.27;88.69;102371.38;5012953;28;20448;-70
2021/03/21 04:14:51;;;;;;;6.30;1.52;;;7.30;99.90;;;7.35;88.55;102376.94;5030739;28;20025;-70
2021/03/21 04:17:31;;;;;;;8.05;1.65;;;7.40;99.90;;;7.41;88.58;102378.22;5030953;28;20037;-70
2021/03/21 04:20:14;;;;;;;14.02;1.58;;;7.50;99.90;;;7.39;88.95;102370.25;5028013;28;20041;-70
2021/03/21 04:22:57;;;;;;;9.95;2.38;;;7.50;99.90;;;7.42;88.58;102372.69;5003526;28;20029;-69
2021/03/21 04:25:30;;;;;;;10.00;1.55;;;7.50;99.90;;;7.33;87.82;102378.09;5027673;28;20128;-69
2021/03/21 04:28:15;;;;;;;5.35;1.23;;;7.40;99.90;;;7.22;88.46;102373.66;5029406;28;20079;-70
2021/03/21 04:30:53;;;;;;;5.85;1.50;;;7.40;99.90;;;7.20;88.18;102372.94;5029051;28;20451;-70
2021/03/21 04:33:26;;;;;;;9.73;1.33;;;7.40;99.90;;;7.23;88.40;102372.66;5029261;28;20380;-69
2021/03/21 04:36:06;;;;;;;14.40;2.08;;;7.40;99.90;;;7.29;87.97;102372.09;5030508;28;20535;-69
2021/03/21 04:38:37;;;;;;;9.18;1.85;;;7.40;99.90;;;7.34;86.57;102364.38;5029435;28;20524;-69
2021/03/21 04:41:08;;;;;;;7.05;1.33;;;7.40;99.90;;;7.39;87.22;102372.97;5017939;28;20053;-69
2021/03/21 04:43:42;;;;;;;8.95;2.13;;;7.50;99.90;;;7.29;87.91;102374.81;5012875;28;20021;-70
2021/03/21 04:46:20;;;;;;;9.80;1.60;;;7.50;99.90;;;7.43;88.33;102385.22;5027881;28;20464;-69
2021/03/21 04:48:46;;;;;;;9.02;2.38;;;7.60;99.90;;;7.42;88.83;102380.81;5021339;28;20033;-69
2021/03/21 04:51:18;;;;;;;10.32;2.92;;;7.60;99.90;;;7.22;88.88;102374.50;5030227;28;20431;-69
2021/03/21 04:53:54;;;;;;;9.05;1.65;;;7.50;99.90;;;7.14;90.20;102371.66;5013311;28;20025;-68
2021/03/21 04:56:32;;;;;;;5.05;1.98;;;7.40;99.90;;;7.27;89.96;102363.25;5029219;28;20034;-69
2021/03/21 04:59:18;;;;;;;9.85;2.28;;;7.40;99.90;;;7.12;90.57;102367.34;5028552;28;20037;-69
2021/03/21 05:02:15;;;;;;;7.13;1.67;;;7.40;99.90;;;7.12;90.86;102361.94;5035325;28;20072;-69
2021/03/21 05:04:58;;;;;;;9.73;1.83;;;7.40;99.90;;;7.20;90.39;102356.69;5026915;28;20069;-69
2021/03/21 05:07:51;;;;;;;10.52;2.58;;;7.40;99.90;;;7.13;91.51;102366.38;5030927;28;20040;-69
2021/03/21 05:10:37;;;;;;;8.02;2.00;;;7.40;99.90;;;7.27;91.35;102368.66;5028308;28;20033;-68
2021/03/21 05:13:24;;;;;;;12.40;2.15;;;7.40;99.90;;;7.20;91.43;102375.66;5027803;28;20044;-69
2021/03/21 05:16:18;;;;;;;10.00;2.92;;;7.40;99.90;;;7.25;92.08;102365.25;5028744;28;20538;-69
2021/03/21 05:19:41;;;;;;;9.05;2.08;;;7.40;99.90;;;7.24;92.17;102360.81;5025705;28;20036;-68
2021/03/21 05:22:49;;;;;;;9.27;3.10;;;7.40;99.90;;;7.23;92.66;102378.06;4977653;28;20046;-69
2021/03/21 05:25:34;;;;;;;18.35;3.47;;;7.40;99.90;;;7.43;92.26;102379.81;5025722;28;20053;-68
2021/03/21 05:28:16;;;;;;;12.95;3.20;;;7.50;99.90;;;7.40;92.00;102387.34;5012689;28;20073;-69
2021/03/21 05:30:42;;;;;;;11.40;3.45;;;7.50;99.90;;;7.30;92.81;102376.53;5008894;28;20396;-68
2021/03/21 05:33:08;;;;;;;18.08;2.33;;;7.50;99.90;;;7.22;91.73;102379.09;5030532;28;20025;-70
2021/03/21 05:35:39;;;;;;;14.32;3.00;;;7.40;99.90;;;7.07;91.99;102381.34;5032855;28;20033;-69
2021/03/21 05:38:34;;;;;;;13.70;2.83;;;7.30;99.90;;;7.04;90.90;102384.31;5016341;28;20327;-69
2021/03/21 05:42:12;;;;;;;12.77;2.08;;;7.30;99.90;;;7.00;89.57;102385.56;5032919;28;20045;-69
2021/03/21 05:45:15;;;;;;;12.55;3.15;;;7.30;99.90;;;7.27;88.84;102379.50;4985554;28;20477;-68
2021/03/21 05:48:05;;;;;;;9.30;2.05;;;7.30;99.90;;;7.25;88.73;102387.75;4976497;28;20601;-68
2021/03/21 05:50:46;;;;;;;13.52;2.83;;;7.30;99.90;;;7.15;88.26;102399.59;5028266;28;20080;-68
2021/03/21 05:54:06;;;;;;;19.63;2.72;;;7.40;99.90;;;7.23;87.90;102406.00;5031447;28;20148;-68
2021/03/21 05:57:25;;;;;;;12.52;3.03;;;7.40;99.90;;;7.29;87.42;102410.03;5030877;28;20031;-68
2021/03/21 06:00:54;;;;;;;9.88;1.83;;;7.40;99.90;;;7.08;84.54;102411.97;5033058;28;20045;-69
2021/03/21 06:03:47;;;;;;;10.45;1.80;;;7.40;99.90;;;7.27;83.86;102417.41;5014840;28;20038;-68
2021/03/21 06:06:48;;;;;;;10.80;2.13;;;7.40;99.90;;;7.21;83.93;102413.44;5030138;28;20072;-68
2021/03/21 06:09:54;;;;;;;11.38;1.73;;;7.40;99.90;;;7.20;83.68;102422.56;5029417;28;20710;-68
2021/03/21 06:13:00;;;;;;;11.18;2.42;;;7.40;99.90;;;7.10;84.13;102420.81;5027610;28;20052;-69
2021/03/21 06:16:22;;;;;;;12.75;2.42;;;7.40;99.90;;;7.12;84.57;102418.81;5044449;28;20124;-67
2021/03/21 06:19:22;;;;;;;11.20;1.85;;;7.30;99.90;;;7.11;85.21;102419.84;5030490;28;20037;-68
2021/03/21 06:22:31;;;;;;;22.00;2.35;;;7.30;99.90;;;7.22;84.78;102425.94;5032556;28;20068;-70
2021/03/21 06:25:29;;;;;;;15.20;2.90;;;7.40;99.90;;;7.17;83.70;102430.94;5031870;28;20103;-68
2021/03/21 06:28:21;;;;;;;10.45;1.98;;;7.40;99.90;;;7.23;83.90;102430.38;4998160;28;20041;-68
2021/03/21 06:31:14;;;;;;;19.70;3.60;;;7.40;99.90;;;7.23;84.18;102437.63;5024714;28;20029;-68
2021/03/21 06:34:10;;;;;;;14.45;2.33;;;7.40;99.90;;;7.21;83.12;102431.53;5031983;28;20049;-69
2021/03/21 06:36:57;;;;;;;19.38;2.20;;;7.50;99.90;;;7.25;82.57;102431.09;5032674;28;20034;-70
2021/03/21 06:40:11;;;;;;;8.65;3.00;;;7.50;99.90;;;7.35;82.31;102441.94;5046911;28;20065;-69
2021/03/21 06:43:15;;;;;;;7.53;1.80;;;7.50;99.90;;;7.30;82.28;102449.66;4993480;28;20525;-68
2021/03/21 06:46:28;;;;;;;12.60;3.35;;;7.60;99.90;;;7.27;83.25;102439.09;5027185;28;20038;-69
2021/03/21 06:49:32;;;;;;;17.45;3.40;;;7.50;99.90;;;7.32;82.50;102436.84;5008897;28;20034;-69
2021/03/21 06:52:32;;;;;;;11.85;2.70;;;7.60;99.90;;;7.49;80.56;102438.84;5009498;28;20451;-69
2021/03/21 06:55:36;;;;;;;11.45;2.63;;;7.60;99.90;;;7.47;80.38;102446.25;5029133;28;20021;-69
2021/03/21 06:58:35;;;;;;;11.95;2.33;;;7.60;99.90;;;7.63;80.44;102443.00;5027054;28;20042;-69
2021/03/21 07:01:10;;;;;;;5.03;2.20;;;7.80;99.90;;;7.78;79.35;102449.72;5031105;28;20136;-70
2021/03/21 07:03:57;;;;;;;;;;;7.80;99.90;;;7.83;79.66;102446.53;5025948;28;20113;-70
2021/03/21 07:07:14;;;;;;;14.00;2.67;;;7.90;99.90;;;7.78;79.55;102459.69;5046468;28;19948;-69
2021/03/21 07:09:52;;;;;;;9.35;2.45;;;8.00;99.90;;;7.85;78.52;102460.81;5019280;28;20059;-71
2021/03/21 07:13:02;;;;;;;19.60;3.05;;;8.00;99.90;;;7.65;78.00;102463.53;5026593;28;20120;-70
2021/03/21 07:16:04;;;;;;;11.00;2.08;;;8.00;99.90;;;7.74;79.37;102469.09;5028392;28;20064;-71
2021/03/21 07:18:48;;;;;;;11.32;2.80;;;7.90;99.90;;;7.68;79.21;102462.38;5030292;28;20037;-70
2021/03/21 07:21:41;;;;;;;16.05;3.17;;;7.90;99.90;;;7.49;80.08;102479.47;5030289;28;20072;-68
2021/03/21 07:24:33;;;;;;;20.38;2.63;;;7.80;99.90;;;7.58;80.98;102470.50;5030243;28;20032;-70
2021/03/21 07:27:38;;;;;;;18.23;3.40;;;7.80;99.90;;;7.54;78.85;102477.22;5031356;28;20061;-69
2021/03/21 07:30:19;;;;;;;10.65;1.92;;;7.70;99.90;;;7.51;75.44;102473.91;5024546;28;20492;-69
2021/03/21 07:33:45;;;;;;;7.40;1.55;;;7.70;99.90;;;7.87;72.77;102472.38;5029014;28;20520;-70
2021/03/21 07:36:26;;;;;;;9.57;2.13;;;7.80;99.90;;;7.80;70.66;102473.94;4970106;28;20031;-72
2021/03/21 07:39:27;;;;;;;17.65;2.05;;;8.00;99.90;;;7.93;70.41;102474.50;5031658;28;20048;-70
2021/03/21 07:42:16;;;;;;;16.60;3.60;;;8.10;99.90;;;8.06;68.00;102472.38;5028811;28;20132;-70
2021/03/21 07:45:12;;;;;;;13.40;2.08;;;8.20;99.90;;;8.05;67.93;102473.38;5029297;28;20048;-69
2021/03/21 07:48:06;;;;;;;9.63;2.92;;;8.20;99.90;;;8.16;67.48;102475.94;5030124;28;20376;-69
2021/03/21 07:50:55;;;;;;;12.07;1.80;;;8.40;99.90;;;8.24;68.14;102473.34;5045144;28;20029;-69
2021/03/21 07:53:31;;;;;;;17.85;3.17;;;8.40;99.90;;;8.19;68.17;102480.22;5029256;28;20554;-70
2021/03/21 07:56:26;;;;;;;11.55;2.40;;;8.50;99.90;;;8.29;69.27;102476.47;5029549;28;20029;-69
2021/03/21 07:59:02;;;;;;;14.40;2.95;;;8.50;99.90;;;8.16;70.70;102470.50;5026744;28;20108;-70
2021/03/21 08:01:28;;;;;;;13.00;2.67;;;8.50;99.90;;;8.25;70.77;102475.06;5014343;28;20083;-71
2021/03/21 08:04:12;;;;;;;21.17;3.45;;;8.40;99.90;;;8.49;70.16;102487.31;5026037;28;20132;-68
2021/03/21 08:06:47;;;;;;;14.82;2.22;;;8.50;99.90;;;8.28;73.04;102485.63;5023686;28;20038;-69
2021/03/21 08:09:30;;;;;;;16.20;3.40;;;8.50;99.90;;;8.31;72.98;102485.38;5029968;28;20492;-70
2021/03/21 08:12:18;;;;;;;14.15;3.33;;;8.50;99.90;;;8.47;72.17;102494.75;5027675;28;20116;-70
2021/03/21 08:15:13;;;;;;;13.90;3.45;;;8.70;99.90;;;8.40;71.82;102499.06;5026632;28;20380;-70
2021/03/21 08:17:48;;;;;;;17.90;3.90;;;8.70;99.90;;;8.34;73.52;102500.50;5029731;28;20079;-70
2021/03/21 08:20:45;;;;;;;14.63;3.72;;;8.70;99.90;;;8.61;72.12;102497.00;5013015;28;20033;-70
2021/03/21 08:23:29;;;;;;;11.43;3.75;;;8.60;99.90;;;8.52;73.05;102492.47;5029438;28;20038;-67
2021/03/21 08:25:58;;;;;;;17.60;3.67;;;8.70;99.90;;;8.20;72.33;102490.91;5026080;28;20045;-71
2021/03/21 08:28:37;;;;;;;19.63;3.15;;;8.70;99.90;;;8.14;73.21;102501.47;5028939;28;20030;-69
2021/03/21 08:31:11;;;;;;;13.02;3.20;;;8.60;99.90;;;7.97;74.25;102500.34;5030460;28;20048;-72
2021/03/21 08:33:43;;;;;;;17.58;4.28;;;8.40;99.90;;;7.86;75.35;102503.19;5027631;28;20392;-71
2021/03/21 08:36:14;;;;;;;26.25;4.18;;;8.30;99.90;;;7.73;75.62;102510.75;5029445;28;20044;-70
2021/03/21 08:38:51;;;;;;;14.88;2.97;;;8.20;99.90;;;7.59;75.93;102518.28;5030156;28;20033;-72
2021/03/21 08:41:17;;;;;;;24.27;4.22;;;8.10;99.90;;;7.67;74.61;102522.16;5030626;28;20060;-70
2021/03/21 08:43:43;;;;;;;13.93;3.20;;;8.00;99.90;;;7.77;72.95;102513.03;5030240;28;20032;-72
2021/03/21 08:46:21;;;;;;;27.75;5.47;;;8.00;99.90;;;7.82;71.72;102531.59;5028582;28;20030;-72
2021/03/21 08:49:21;;;;;;;14.13;3.25;;;8.00;99.90;;;7.88;70.97;102525.63;5030341;28;20029;-72
2021/03/21 08:51:47;;;;;;;20.30;3.20;;;8.00;99.90;;;8.20;69.71;102518.03;5010952;28;20044;-72
2021/03/21 08:54:28;;;;;;;16.08;2.85;;;8.20;99.90;;;8.41;67.44;102522.47;5014294;28;20091;-69
2021/03/21 08:57:08;;;;;;;24.10;3.45;;;8.40;99.90;;;8.20;65.44;102531.59;5027894;28;20500;-70
2021/03/21 08:59:45;;;;;;;15.38;3.42;;;8.40;99.90;;;8.21;64.47;102527.91;5010778;28;20104;-73
2021/03/21 09:02:16;;;;;;;23.00;4.03;;;8.40;99.90;;;8.50;63.77;102522.47;5029102;28;20045;-68
2021/03/21 09:05:09;;;;;;;23.30;3.47;;;8.50;99.90;;;8.55;63.23;102524.75;5027659;28;20045;-75
2021/03/21 09:07:51;;;;;;;20.88;3.22;;;8.70;99.90;;;8.77;62.01;102532.56;5031341;28;20098;-71
2021/03/21 09:10:29;;;;;;;13.25;2.00;;;8.90;99.90;;;9.17;60.99;102526.81;5035813;28;20114;-73
2021/03/21 09:13:21;;;;;;;14.02;2.75;;;9.10;99.90;;;9.20;61.41;102525.66;5031820;28;20041;-72
2021/03/21 09:15:56;;;;;;;15.07;3.05;;;9.30;99.90;;;9.55;60.06;102536.66;5020744;28;20102;-73
2021/03/21 09:18:30;;;;;;;7.90;2.25;;;9.60;99.90;;;8.84;63.11;102522.81;5036009;28;20045;-72
2021/03/21 09:21:06;;;;;;;13.07;3.45;;;9.30;99.90;;;8.78;62.24;102523.41;5028809;28;20597;-74
2021/03/21 09:23:32;;;;;;;18.13;3.33;;;9.20;99.90;;;8.58;62.05;102532.56;5034944;28;20061;-72
2021/03/21 09:26:02;;;;;;;16.38;3.85;;;9.10;99.90;;;8.87;60.44;102514.38;5034089;28;20488;-73
2021/03/21 09:28:35;;;;;;;12.57;3.10;;;9.10;99.90;;;8.58;61.67;102529.88;5034094;28;20034;-73
2021/03/21 09:31:08;;;;;;;11.90;2.58;;;9.00;99.90;;;8.80;60.28;102518.69;5006388;28;20049;-63
2021/03/21 09:34:09;;;;;;;20.85;3.33;;;9.00;99.90;;;8.68;61.18;102530.72;5029797;28;20029;-63
2021/03/21 09:37:11;;;;;;;18.92;3.95;;;9.00;99.90;;;8.89;60.98;102566.69;5015596;28;20179;-64
2021/03/21 09:40:03;;;;;;;19.25;3.80;;;9.00;99.90;;;8.44;63.06;102550.19;5012364;28;20061;-66
2021/03/21 09:42:31;;;;;;;16.67;3.00;;;8.80;99.90;;;8.52;62.85;102544.03;5028629;28;20042;-67
2021/03/21 09:44:58;;;;;;;17.73;3.10;;;8.70;99.90;;;8.86;62.87;102556.09;5030243;28;20033;-64
2021/03/21 09:47:49;;;;;;;23.05;4.00;;;8.90;99.90;;;8.70;62.15;102553.13;5012134;28;20911;-65
2021/03/21 09:50:42;;;;;;;19.33;3.63;;;9.00;99.90;;;8.55;61.61;102555.47;5046174;28;20100;-63
2021/03/21 09:53:59;;;;;;;19.20;3.08;;;9.00;99.90;;;8.56;62.94;102564.47;5032433;28;20393;-62
2021/03/21 09:56:28;;;;;;;13.40;3.38;;;8.70;99.90;;;9.13;62.11;102566.19;5023610;28;20059;-66
2021/03/21 09:59:13;;;;;;;18.95;3.53;;;9.00;99.90;;;9.43;58.75;102575.91;5028546;28;20423;-66
2021/03/21 10:02:32;;;;;;;18.23;4.82;;;9.30;99.90;;;9.54;57.81;102573.00;5013868;28;20033;-63
2021/03/21 10:05:15;;;;;;;15.35;2.80;;;9.60;99.90;;;9.80;56.19;102579.44;5016380;28;20041;-64
2021/03/21 10:07:53;;;;;;;25.10;3.30;;;9.90;99.70;;;9.78;56.58;102581.44;5025701;28;20033;-66
2021/03/21 10:10:34;;;;;;;14.07;3.30;;;10.00;99.80;;;9.95;56.28;102589.75;5015503;28;20035;-69
2021/03/21 10:13:00;;;;;;;14.98;2.83;;;10.00;99.80;;;10.77;54.56;102579.50;5046797;28;20025;-69
2021/03/21 10:15:27;;;;;;;20.38;3.47;;;10.40;99.80;;;10.29;53.90;102590.84;5032941;28;20084;-69
2021/03/21 10:18:00;;;;;;;18.88;3.13;;;10.50;98.60;;;10.45;53.75;102590.13;5014679;28;20103;-69
2021/03/21 10:20:51;;;;;;;15.20;3.30;;;10.50;98.90;;;10.08;55.12;102584.81;5026431;28;20040;-64
2021/03/21 10:23:17;;;;;;;16.83;3.75;;;10.40;98.40;;;10.32;54.55;102584.22;5026070;28;20029;-63
2021/03/21 10:25:42;;;;;;;17.38;3.67;;;10.40;99.00;;;10.03;55.13;102588.00;5010402;28;20052;-65
2021/03/21 10:28:40;;;;;;;18.38;3.40;;;10.30;99.00;;;9.73;56.09;102578.31;5025655;28;20038;-62
2021/03/21 10:31:25;;;;;;;13.93;3.10;;;10.20;99.30;;;10.21;55.13;102588.03;5026880;28;20045;-63
2021/03/21 10:34:14;;;;;;;10.38;2.78;;;10.30;99.40;;;10.13;53.86;102585.22;5025965;28;20034;-70
2021/03/21 10:36:40;;;;;;;24.20;3.63;;;10.20;98.60;;;10.97;53.89;102579.28;5027545;28;20784;-69
2021/03/21 10:39:24;;;;;;;25.58;3.47;;;10.50;99.40;;;11.15;51.76;102586.41;5026158;28;20419;-70
2021/03/21 10:42:40;;;;;;;17.85;3.30;;;10.90;98.40;;;11.30;51.07;102578.47;5026381;28;20412;-70
2021/03/21 10:45:15;;;;;;;19.13;4.10;;;11.20;97.60;;;11.04;51.66;102586.69;4972511;28;20041;-69
2021/03/21 10:47:44;;;;;;;24.10;3.33;;;11.40;97.00;;;10.61;52.59;102584.00;5023118;28;20040;-70
2021/03/21 10:50:28;;;;;;;23.20;3.63;;;11.20;97.20;;;10.52;52.92;102592.06;5007137;28;20438;-70
2021/03/21 10:53:17;;;;;;;14.27;3.40;;;11.00;97.50;;;10.33;53.01;102597.69;5028427;28;20108;-70
2021/03/21 10:56:19;;;;;;;20.08;3.85;;;10.90;97.70;;;11.23;51.05;102596.50;5027898;28;20041;-71
2021/03/21 10:58:45;;;;;;;17.08;2.88;;;11.20;97.40;;;11.17;50.60;102594.44;5029526;28;20396;-70
2021/03/21 11:01:17;;;;;;;17.10;3.67;;;11.40;96.90;;;10.98;51.41;102591.91;5027180;28;20040;-71
2021/03/21 11:03:58;;;;;;;22.92;3.42;;;11.40;96.90;;;11.20;51.18;102589.50;5043952;28;20042;-69
2021/03/21 11:06:34;;;;;;;14.23;3.20;;;11.40;96.80;;;10.85;50.80;102614.13;5025981;28;20554;-69
2021/03/21 11:09:14;;;;;;;15.70;3.75;;;11.30;96.70;;;10.49;52.63;102603.31;5025810;28;20107;-69
2021/03/21 11:11:44;;;;;;;13.23;4.05;;;11.00;97.00;;;10.08;54.15;102592.97;5025041;28;20405;-67
2021/03/21 11:14:31;;;;;;;13.23;2.65;;;10.80;97.90;;;10.09;55.03;102591.97;5031997;28;20033;-65
2021/03/21 11:17:28;;;;;;;12.32;2.72;;;10.60;98.30;;;9.71;56.30;102591.19;5028686;28;20041;-66
2021/03/21 11:19:57;;;;;;;17.23;2.92;;;10.40;98.60;;;9.40;55.44;102608.81;5033124;28;20038;-70
2021/03/21 11:22:32;;;;;;;20.85;3.83;;;10.10;98.70;;;9.71;54.75;102602.06;5015571;28;21521;-67
2021/03/21 11:24:59;;;;;;;14.95;3.20;;;10.00;98.80;;;9.64;56.23;102598.25;5048167;28;20096;-66
2021/03/21 11:27:35;;;;;;;25.35;3.58;;;10.00;99.40;;;9.07;56.90;102608.34;4995560;28;20073;-64